• Join FlightAware (Why Join?)
  • Login
  • US Flag 
05:49PM EDT


 

Airport Tracker/Info


-or-


 

Live Flight TrackerFlight Track Log ✈ N32169 ✈ 12-May-2012 ✈ KSMO - KOXR

Flight Track Log - Related Links

Times and Time Zones

All times are in EDT time to prevent confusion due to time zone crossing. See the N32169 flight status page for this flight to view local times or setup timezone preferences in your user account.

Time Position Orientation Groundspeed Altitude Reporting Facility
EDT Latitude Longitude Course Direction KTS MPH feet Rate Location/Type
12:38PM 34.0000 -118.4833 284° West 80 92 1,300  Level Southern California TRACON
12:42PM 34.0167 -118.5667 360° North 81 93 4,000 480 Climbing Southern California TRACON
12:43PM 34.0500 -118.5667 320° Northwest 100 115 4,000  Level Southern California TRACON
12:44PM 34.0667 -118.5833 360° North 106 122 4,000  Level Southern California TRACON
12:45PM 34.1000 -118.5833 338° Northwest 105 121 4,000  Level Southern California TRACON
12:46PM 34.1333 -118.6000 320° Northwest 104 120 4,000  Level Southern California TRACON
12:47PM 34.1500 -118.6167 301° West 112 129 4,000  Level Southern California TRACON
12:48PM 34.1667 -118.6500 301° West 109 125 4,100  Climbing Southern California TRACON
12:49PM 34.1833 -118.6833 253° West 112 129 4,000 -120 Descending Southern California TRACON
12:56PM 34.1255 -118.9110 285° West  Level FlightAware Approximate
12:57PM 34.1333 -118.9466 285° West  Level FlightAware Approximate
12:58PM 34.1411 -118.9822 285° West  Level FlightAware Approximate
12:59PM 34.1488 -119.0179 285° West  Level FlightAware Approximate
01:00PM 34.1566 -119.0535 285° West  Level FlightAware Approximate
01:01PM 34.1643 -119.0892 290° West  Level FlightAware Approximate
01:02PM 34.1746 -119.1238 291° West  Level FlightAware Approximate
01:03PM 34.1854 -119.1583 293° West  Level Estimated
01:04PM 34.2000 -119.2000 278° West  Level FlightAware Approximate
01:05PM 34.2041 -119.2365 98° East  Level Estimated
01:06PM 34.2000 -119.2000 278° West  Level FlightAware Approximate
01:07PM 34.2041 -119.2365 98° East  Level Estimated
01:08PM 34.2000 -119.2000 278° West  Level FlightAware Approximate
01:09PM 34.2041 -119.2365 278° West  Level Estimated